Time;durP1;ratioP1;P1;durP2;ratioP2;P2;SDS_P1;SDS_P2;PMS_P1;PMS_P2;Temp;Humidity;BMP_temperature;BMP_pressure;BME280_temperature;BME280_humidity;BME280_pressure;Samples;Min_cycle;Max_cycle;Signal;HPM_P1;HPM_P2
2022/05/04 00:01:26;;;;;;;7.77;6.93;;;10.00;99.90;;;;;;5051889;28;20175;-64
2022/05/04 00:03:51;;;;;;;9.27;8.37;;;9.90;99.90;;;;;;5051622;28;20178;-63
2022/05/04 00:06:17;;;;;;;18.93;10.33;;;9.90;99.90;;;;;;5051423;28;20183;-64
2022/05/04 00:08:42;;;;;;;8.10;7.57;;;9.80;99.90;;;;;;5051323;28;20202;-64
2022/05/04 00:11:08;;;;;;;9.13;5.43;;;9.80;99.90;;;;;;5051018;28;20245;-64
2022/05/04 00:13:34;;;;;;;6.93;6.43;;;9.70;99.90;;;;;;5051572;28;20271;-62
2022/05/04 00:16:01;;;;;;;5.37;5.00;;;9.60;99.90;;;;;;5051333;28;20233;-64
2022/05/04 00:18:30;;;;;;;17.13;6.90;;;9.60;99.90;;;;;;5050212;28;20248;-63
2022/05/04 00:20:56;;;;;;;5.30;4.90;;;9.50;99.90;;;;;;5051529;28;20179;-63
2022/05/04 00:23:23;;;;;;;5.40;5.03;;;9.50;99.90;;;;;;5051137;28;20277;-64
2022/05/04 00:25:49;;;;;;;7.03;5.33;;;9.40;99.90;;;;;;5051107;28;20183;-64
2022/05/04 00:28:15;;;;;;;7.20;5.30;;;9.40;99.90;;;;;;5051243;28;20213;-64
2022/05/04 00:30:41;;;;;;;7.87;7.07;;;9.40;99.90;;;;;;5051513;28;20182;-63
2022/05/04 00:33:06;;;;;;;6.10;5.67;;;9.40;99.90;;;;;;5051014;28;20871;-63
2022/05/04 00:35:33;;;;;;;4.27;4.07;;;9.40;99.90;;;;;;5051137;28;20254;-63
2022/05/04 00:37:59;;;;;;;4.70;4.50;;;9.40;99.90;;;;;;5050920;28;20585;-64
2022/05/04 00:40:24;;;;;;;5.70;5.40;;;9.30;99.90;;;;;;5051317;28;20175;-64
2022/05/04 00:42:50;;;;;;;4.77;4.57;;;9.30;99.90;;;;;;5050947;28;20179;-64
2022/05/04 00:45:16;;;;;;;4.87;4.17;;;9.30;99.90;;;;;;5050960;28;20171;-64
2022/05/04 00:47:41;;;;;;;3.97;3.77;;;9.30;99.90;;;;;;5050970;28;20214;-64
2022/05/04 00:50:08;;;;;;;4.40;4.20;;;9.30;99.90;;;;;;5051406;28;20788;-63
2022/05/04 00:52:35;;;;;;;4.57;4.37;;;9.20;99.90;;;;;;5051083;28;20236;-64
2022/05/04 00:55:03;;;;;;;4.27;4.10;;;9.20;99.90;;;;;;5050486;28;20182;-64
2022/05/04 01:00:15;;;;;;;4.83;4.63;;;9.20;99.90;;;;;;5035662;28;20212;-63
2022/05/04 01:02:41;;;;;;;3.90;3.80;;;9.20;99.90;;;;;;5037719;28;20190;-64
2022/05/04 01:05:11;;;;;;;3.90;3.80;;;9.10;99.90;;;;;;5054713;28;20564;-63
2022/05/04 01:07:39;;;;;;;3.70;3.60;;;9.10;99.90;;;;;;5054523;28;20281;-63
2022/05/04 01:10:05;;;;;;;3.83;3.73;;;9.10;99.90;;;;;;5037331;28;20761;-64
2022/05/04 01:12:34;;;;;;;3.87;3.77;;;9.10;99.90;;;;;;5054842;28;20528;-64
2022/05/04 01:15:00;;;;;;;4.00;3.80;;;9.00;99.90;;;;;;5054583;28;20171;-64
2022/05/04 01:17:29;;;;;;;3.80;3.70;;;8.90;99.90;;;;;;5054759;28;20553;-63
2022/05/04 01:19:59;;;;;;;3.70;3.60;;;8.90;99.90;;;;;;5054952;28;20262;-64
2022/05/04 01:22:24;;;;;;;4.30;4.10;;;8.90;99.90;;;;;;5054559;28;20662;-63
2022/05/04 01:24:50;;;;;;;3.97;3.87;;;8.90;99.90;;;;;;5054563;28;20178;-64
2022/05/04 01:27:16;;;;;;;4.17;4.00;;;8.90;99.90;;;;;;5054243;28;20210;-63
2022/05/04 01:29:42;;;;;;;4.00;3.90;;;8.80;99.90;;;;;;5054748;28;20791;-64
2022/05/04 01:32:08;;;;;;;3.97;3.87;;;8.70;99.90;;;;;;5054438;28;20179;-64
2022/05/04 01:34:34;;;;;;;4.40;4.20;;;8.80;99.90;;;;;;5054483;28;20177;-64
2022/05/04 01:37:00;;;;;;;4.43;4.23;;;8.80;99.90;;;;;;5054173;28;20293;-64
2022/05/04 01:39:26;;;;;;;5.30;5.10;;;8.80;99.90;;;;;;5054488;28;20218;-63
2022/05/04 01:42:03;;;;;;;4.90;4.63;;;8.70;99.90;;;;;;5054057;28;20179;-64
2022/05/04 01:44:33;;;;;;;4.30;4.10;;;8.70;99.90;;;;;;5054321;28;20636;-65
2022/05/04 01:47:00;;;;;;;3.87;3.77;;;8.80;99.90;;;;;;5054005;28;20202;-63
2022/05/04 01:49:25;;;;;;;4.57;4.37;;;8.70;99.90;;;;;;5054337;28;20174;-63
2022/05/04 01:51:51;;;;;;;4.87;4.67;;;8.70;99.90;;;;;;5053972;28;20198;-65
2022/05/04 01:54:17;;;;;;;5.50;5.20;;;8.70;99.90;;;;;;5054203;28;20171;-64
2022/05/04 01:56:42;;;;;;;4.93;4.73;;;8.70;99.90;;;;;;5053744;28;20206;-64
2022/05/04 01:59:08;;;;;;;5.23;5.03;;;8.70;99.90;;;;;;5054207;28;20206;-63
2022/05/04 02:01:35;;;;;;;4.70;4.50;;;8.70;99.90;;;;;;5053869;28;20264;-63
2022/05/04 02:04:02;;;;;;;4.40;4.20;;;8.70;99.90;;;;;;5054035;28;20179;-64
2022/05/04 02:06:28;;;;;;;5.07;4.87;;;8.60;99.90;;;;;;5053501;28;20221;-64
2022/05/04 02:08:53;;;;;;;5.53;5.23;;;8.60;99.90;;;;;;5052547;28;20298;-65
2022/05/04 02:11:19;;;;;;;5.17;4.87;;;8.50;99.90;;;;;;5053547;28;20244;-63
2022/05/04 02:13:45;;;;;;;5.57;5.27;;;8.40;99.90;;;;;;5053920;28;20628;-63
2022/05/04 02:16:10;;;;;;;4.60;4.40;;;8.40;99.90;;;;;;5053218;28;20546;-63
2022/05/04 02:18:36;;;;;;;4.53;4.33;;;8.30;99.90;;;;;;5053778;28;20617;-64
2022/05/04 02:21:02;;;;;;;4.97;4.77;;;8.20;99.90;;;;;;5053497;28;20629;-64
2022/05/04 02:23:28;;;;;;;5.50;5.20;;;8.20;99.90;;;;;;5053668;28;20187;-64
2022/05/04 02:25:53;;;;;;;4.83;4.63;;;8.20;99.90;;;;;;5053159;28;20198;-64
2022/05/04 02:28:19;;;;;;;5.00;4.80;;;8.20;99.90;;;;;;5053551;28;20245;-63
2022/05/04 02:30:45;;;;;;;4.40;4.20;;;8.20;99.90;;;;;;5053178;28;20186;-65
2022/05/04 02:33:11;;;;;;;4.83;4.63;;;8.10;99.90;;;;;;5053205;28;20187;-64
2022/05/04 02:38:21;;;;;;;4.27;4.07;;;8.00;99.90;;;;;;5053091;28;20229;-65
2022/05/04 02:40:48;;;;;;;4.63;4.43;;;8.00;99.90;;;;;;5053452;28;20541;-65
2022/05/04 02:43:14;;;;;;;4.53;4.33;;;7.90;99.90;;;;;;5052963;28;20277;-64
2022/05/04 02:45:40;;;;;;;4.60;4.40;;;7.90;99.90;;;;;;5053170;28;20560;-63
2022/05/04 02:48:07;;;;;;;4.97;4.77;;;7.90;99.90;;;;;;5053097;28;20217;-62
2022/05/04 02:50:33;;;;;;;5.07;4.87;;;7.90;99.90;;;;;;5053253;28;20187;-64
2022/05/04 02:52:59;;;;;;;5.77;5.27;;;7.80;99.90;;;;;;5052811;28;20575;-64
2022/05/04 02:55:25;;;;;;;4.80;4.60;;;7.80;99.90;;;;;;5052676;28;20182;-64
2022/05/04 02:57:50;;;;;;;4.70;4.50;;;7.70;99.90;;;;;;5052761;28;20294;-63
2022/05/04 03:00:16;;;;;;;6.47;6.17;;;7.70;99.90;;;;;;5053157;28;20269;-63
2022/05/04 03:02:42;;;;;;;5.50;5.30;;;7.70;99.90;;;;;;5053003;28;20247;-63
2022/05/04 03:05:09;;;;;;;4.70;4.50;;;7.70;99.90;;;;;;5052278;28;20617;-64
2022/05/04 03:07:35;;;;;;;4.70;4.50;;;7.70;99.90;;;;;;5052487;28;20597;-63
2022/05/04 03:10:01;;;;;;;5.57;5.37;;;7.70;99.90;;;;;;5052816;28;20209;-63
2022/05/04 03:12:27;;;;;;;5.27;5.07;;;7.70;99.90;;;;;;5052543;28;20703;-64
2022/05/04 03:14:53;;;;;;;5.17;4.97;;;7.70;99.90;;;;;;5052412;28;20600;-64
2022/05/04 03:17:19;;;;;;;5.33;5.13;;;7.70;99.90;;;;;;5052572;28;20611;-63
2022/05/04 03:19:45;;;;;;;5.80;5.60;;;7.70;99.90;;;;;;5052496;28;20224;-64
2022/05/04 03:22:12;;;;;;;5.63;5.43;;;7.70;99.90;;;;;;5052570;28;20805;-63
2022/05/04 03:24:38;;;;;;;4.77;4.57;;;7.70;99.90;;;;;;5052331;28;20175;-64
2022/05/04 03:27:05;;;;;;;4.80;4.60;;;7.70;99.90;;;;;;5052032;28;20575;-64
2022/05/04 03:29:30;;;;;;;5.13;4.93;;;7.70;99.90;;;;;;5052268;28;20167;-64
2022/05/04 03:31:56;;;;;;;5.10;4.90;;;7.70;99.90;;;;;;5052098;28;20171;-63
2022/05/04 03:34:22;;;;;;;4.53;4.33;;;7.60;99.90;;;;;;5052401;28;20213;-64
2022/05/04 03:36:47;;;;;;;7.33;6.93;;;7.60;99.90;;;;;;5051836;28;20233;-66
2022/05/04 03:39:13;;;;;;;4.53;4.33;;;7.60;99.90;;;;;;5052239;28;20177;-66
2022/05/04 03:41:39;;;;;;;5.30;4.93;;;7.60;99.90;;;;;;5052072;28;20689;-65
2022/05/04 03:44:05;;;;;;;4.60;4.40;;;7.60;99.90;;;;;;5052121;28;20171;-65
2022/05/04 03:46:44;;;;;;;4.47;4.27;;;7.60;99.90;;;;;;5051833;28;20236;-66
2022/05/04 03:49:11;;;;;;;4.40;4.20;;;7.60;99.90;;;;;;5052314;28;20234;-63
2022/05/04 03:51:37;;;;;;;4.43;4.23;;;7.60;99.90;;;;;;5051764;28;20543;-64
2022/05/04 03:54:03;;;;;;;4.80;4.60;;;7.70;99.90;;;;;;5051954;28;20174;-65
2022/05/04 03:56:29;;;;;;;4.97;4.77;;;7.70;99.90;;;;;;5051488;28;20198;-65
2022/05/04 03:58:54;;;;;;;5.43;5.23;;;7.70;99.90;;;;;;5051970;28;20639;-64
2022/05/04 04:01:20;;;;;;;4.60;4.40;;;7.70;99.90;;;;;;5051492;28;20179;-65
2022/05/04 04:03:46;;;;;;;4.53;4.33;;;7.70;99.90;;;;;;5051888;28;20641;-66
2022/05/04 04:06:12;;;;;;;4.60;4.40;;;7.70;99.90;;;;;;5051278;28;20183;-65
2022/05/04 04:08:37;;;;;;;4.63;4.43;;;7.70;99.90;;;;;;5051680;28;20241;-65
2022/05/04 04:11:03;;;;;;;5.10;4.90;;;7.80;99.90;;;;;;5051677;28;20536;-65
2022/05/04 04:13:29;;;;;;;4.63;4.43;;;7.80;99.90;;;;;;5051259;28;20396;-64
2022/05/04 04:15:55;;;;;;;5.23;5.03;;;7.80;99.90;;;;;;5051436;28;20167;-64
2022/05/04 04:18:26;;;;;;;4.70;4.50;;;7.80;99.90;;;;;;5051373;28;20202;-65
2022/05/04 04:23:38;;;;;;;4.47;4.27;;;7.70;99.90;;;;;;5051716;28;20205;-66
2022/05/04 04:26:05;;;;;;;4.90;4.70;;;7.70;99.90;;;;;;5051204;28;20170;-64
2022/05/04 04:28:32;;;;;;;4.43;4.23;;;7.70;99.90;;;;;;5051126;28;20202;-65
2022/05/04 04:30:57;;;;;;;4.53;4.33;;;7.80;99.90;;;;;;5051472;28;20167;-64
2022/05/04 04:33:26;;;;;;;4.93;4.73;;;7.80;99.90;;;;;;5050244;28;20222;-66
2022/05/04 04:35:53;;;;;;;4.83;4.63;;;7.90;99.90;;;;;;5050988;28;20538;-64
2022/05/04 04:38:18;;;;;;;5.53;5.23;;;7.80;99.90;;;;;;5051058;28;20253;-64
2022/05/04 04:40:44;;;;;;;4.53;4.33;;;7.80;99.90;;;;;;5051346;28;20260;-65
2022/05/04 04:43:10;;;;;;;5.60;5.23;;;7.90;99.90;;;;;;5051122;28;20199;-64
2022/05/04 04:45:36;;;;;;;4.63;4.43;;;8.00;99.90;;;;;;5050814;28;20254;-63
2022/05/04 04:48:01;;;;;;;4.73;4.53;;;8.00;99.90;;;;;;5051098;28;20300;-62
2022/05/04 04:50:27;;;;;;;4.20;4.00;;;8.00;99.90;;;;;;5051194;28;20224;-63
2022/05/04 04:52:53;;;;;;;4.40;4.20;;;8.10;99.90;;;;;;5050982;28;20252;-64
2022/05/04 04:55:18;;;;;;;4.93;4.73;;;8.20;99.90;;;;;;5050667;28;20175;-64
2022/05/04 04:57:44;;;;;;;4.57;4.37;;;8.30;99.90;;;;;;5050787;28;20281;-64
2022/05/04 05:00:11;;;;;;;5.50;5.27;;;8.40;99.90;;;;;;5051061;28;20175;-63
2022/05/04 05:02:36;;;;;;;4.70;4.50;;;8.30;99.90;;;;;;5050772;28;20206;-64
2022/05/04 05:05:03;;;;;;;4.77;4.57;;;8.30;99.90;;;;;;5050728;28;20221;-65
2022/05/04 05:07:29;;;;;;;4.53;4.33;;;8.40;99.90;;;;;;5050529;28;20305;-64
2022/05/04 05:09:55;;;;;;;4.20;4.03;;;8.40;99.90;;;;;;5050934;28;20190;-65
2022/05/04 05:12:21;;;;;;;4.40;4.20;;;8.30;99.90;;;;;;5050914;28;20175;-64
2022/05/04 05:17:32;;;;;;;5.43;5.23;;;8.40;99.90;;;;;;5051028;28;20213;-63
2022/05/04 05:19:58;;;;;;;6.07;5.40;;;8.50;99.90;;;;;;5050958;28;20217;-63
2022/05/04 05:22:24;;;;;;;4.80;4.60;;;8.50;99.90;;;;;;5050731;28;20261;-63
2022/05/04 05:24:49;;;;;;;5.13;4.93;;;8.50;99.90;;;;;;5050625;28;20251;-63
2022/05/04 05:27:15;;;;;;;4.43;4.23;;;8.60;99.90;;;;;;5050262;28;20260;-63
2022/05/04 05:29:41;;;;;;;4.60;4.30;;;8.80;99.90;;;;;;5050838;28;20217;-64
2022/05/04 05:32:07;;;;;;;4.40;4.20;;;8.90;99.90;;;;;;5050555;28;20249;-63
2022/05/04 05:34:34;;;;;;;3.60;3.50;;;9.00;99.90;;;;;;5050174;28;20190;-63
2022/05/04 05:37:00;;;;;;;4.27;4.07;;;9.10;99.90;;;;;;5050529;28;20252;-63
2022/05/04 05:39:26;;;;;;;4.30;4.10;;;9.20;99.90;;;;;;5050385;28;20175;-63
2022/05/04 05:41:52;;;;;;;4.07;3.90;;;9.20;99.90;;;;;;5050650;28;20179;-64
2022/05/04 05:44:18;;;;;;;3.90;3.80;;;9.40;99.90;;;;;;5052867;28;20546;-64
2022/05/04 05:46:44;;;;;;;4.43;4.23;;;9.50;99.90;;;;;;5054050;28;20653;-63
2022/05/04 05:49:09;;;;;;;3.90;3.80;;;9.60;99.90;;;;;;5054416;28;20255;-64
2022/05/04 05:51:35;;;;;;;5.63;5.33;;;9.70;99.90;;;;;;5053911;28;20333;-61
2022/05/04 05:54:00;;;;;;;3.60;3.50;;;9.70;99.90;;;;;;5054289;28;20198;-65
2022/05/04 05:56:26;;;;;;;4.07;3.87;;;10.00;99.90;;;;;;5053765;28;20206;-63
2022/05/04 05:58:52;;;;;;;3.53;3.43;;;10.20;99.90;;;;;;5053570;28;20174;-64
2022/05/04 06:01:17;;;;;;;3.50;3.40;;;10.50;99.90;;;;;;5053569;28;20197;-63
2022/05/04 06:03:43;;;;;;;3.30;3.20;;;10.70;99.90;;;;;;5054039;28;20171;-63
2022/05/04 06:06:09;;;;;;;4.10;3.90;;;11.00;99.90;;;;;;5053457;28;20187;-63
2022/05/04 06:08:35;;;;;;;3.27;3.17;;;11.10;99.90;;;;;;5054000;28;20198;-64
2022/05/04 06:11:00;;;;;;;3.73;3.63;;;11.30;99.90;;;;;;5053684;28;20179;-64
2022/05/04 06:13:26;;;;;;;3.80;3.70;;;11.40;99.90;;;;;;5053861;28;20171;-65
2022/05/04 06:15:51;;;;;;;3.10;3.00;;;11.40;99.90;;;;;;5052945;28;20211;-63
2022/05/04 06:18:17;;;;;;;4.23;4.03;;;11.50;99.90;;;;;;5054571;28;20256;-65
2022/05/04 06:20:43;;;;;;;4.10;3.90;;;11.50;99.90;;;;;;5053745;28;20569;-66
2022/05/04 06:23:09;;;;;;;3.70;3.60;;;11.60;99.90;;;;;;5053699;28;20244;-66
2022/05/04 06:25:35;;;;;;;4.13;3.77;;;11.90;99.90;;;;;;5051556;28;20281;-65
2022/05/04 06:28:01;;;;;;;2.90;2.80;;;12.10;99.90;;;;;;5053275;28;20203;-66
2022/05/04 06:35:55;;;;;;;3.50;3.40;;;12.70;99.90;;;;;;5035664;28;20193;-65
2022/05/04 06:38:21;;;;;;;3.57;3.47;;;13.10;99.90;;;;;;5053144;28;20210;-64
2022/05/04 06:40:46;;;;;;;3.63;3.47;;;13.50;99.90;;;;;;5052861;28;20227;-63
2022/05/04 06:43:12;;;;;;;3.23;3.13;;;13.70;99.90;;;;;;5035283;28;20559;-65
2022/05/04 06:45:38;;;;;;;3.50;3.40;;;14.00;99.90;;;;;;5051970;28;20182;-63
2022/05/04 06:48:04;;;;;;;3.47;3.30;;;14.00;99.90;;;;;;5052695;28;20198;-64
2022/05/04 06:50:30;;;;;;;3.40;3.30;;;14.20;99.90;;;;;;5053083;28;20630;-64
2022/05/04 06:52:56;;;;;;;3.10;3.00;;;14.20;99.90;;;;;;5052665;28;20175;-64
2022/05/04 06:55:22;;;;;;;3.40;3.30;;;14.20;99.90;;;;;;5051952;28;20175;-65
2022/05/04 06:57:47;;;;;;;3.60;3.50;;;14.30;99.90;;;;;;5052659;28;20629;-64
2022/05/04 07:00:13;;;;;;;4.17;4.00;;;14.50;99.90;;;;;;5052137;28;20675;-64
2022/05/04 07:02:39;;;;;;;3.77;3.63;;;14.50;99.90;;;;;;5052484;28;20264;-64
2022/05/04 07:05:06;;;;;;;4.03;3.83;;;14.30;99.90;;;;;;5052241;28;20263;-65
2022/05/04 07:07:32;;;;;;;3.10;3.00;;;13.90;99.90;;;;;;5052457;28;20225;-65
2022/05/04 07:09:59;;;;;;;3.67;3.57;;;13.80;99.90;;;;;;5052601;28;20224;-64
2022/05/04 07:12:25;;;;;;;3.17;3.07;;;13.90;99.90;;;;;;5052604;28;20640;-65
2022/05/04 07:14:56;;;;;;;3.10;3.00;;;13.90;99.90;;;;;;5052038;28;20175;-65
2022/05/04 07:17:22;;;;;;;3.33;3.23;;;13.90;99.90;;;;;;5052404;28;20688;-63
2022/05/04 07:19:48;;;;;;;4.20;4.00;;;14.00;99.90;;;;;;5052024;28;20232;-64
2022/05/04 07:22:14;;;;;;;3.90;3.60;;;13.70;99.90;;;;;;5052239;28;20167;-64
2022/05/04 07:24:39;;;;;;;4.43;4.23;;;13.80;99.90;;;;;;5051039;28;20183;-64
2022/05/04 07:27:08;;;;;;;3.90;3.70;;;13.80;99.90;;;;;;5050619;28;20234;-64
2022/05/04 07:29:34;;;;;;;3.20;3.10;;;13.80;99.90;;;;;;5052065;28;20253;-64
2022/05/04 07:32:00;;;;;;;4.03;3.90;;;13.70;99.90;;;;;;5051566;28;20590;-64
2022/05/04 07:34:26;;;;;;;3.73;3.53;;;13.40;99.90;;;;;;5052356;28;20255;-66
2022/05/04 07:36:51;;;;;;;3.50;3.40;;;13.50;99.90;;;;;;5051470;28;20730;-65
2022/05/04 07:44:45;;;;;;;4.17;4.03;;;14.70;99.90;;;;;;5051696;28;20225;-65
2022/05/04 07:47:11;;;;;;;3.73;3.53;;;15.40;99.90;;;;;;5051788;28;20972;-65
2022/05/04 07:49:36;;;;;;;4.47;4.27;;;15.80;99.90;;;;;;5052103;28;20534;-64
2022/05/04 07:52:02;;;;;;;4.17;3.97;;;15.70;99.90;;;;;;5051504;28;20704;-63
2022/05/04 07:54:28;;;;;;;3.97;3.77;;;15.40;99.90;;;;;;5051768;28;20711;-64
2022/05/04 07:56:54;;;;;;;4.27;4.07;;;15.30;99.90;;;;;;5051151;28;20195;-64
2022/05/04 07:59:20;;;;;;;4.80;4.60;;;15.70;99.90;;;;;;5051962;28;20619;-65
2022/05/04 08:04:30;;;;;;;4.70;4.50;;;16.50;99.90;;;;;;5051460;28;20613;-65
2022/05/04 08:06:55;;;;;;;3.87;3.77;;;16.50;99.90;;;;;;5050933;28;20198;-64
2022/05/04 08:09:21;;;;;;;5.40;5.20;;;16.70;99.90;;;;;;5051506;28;20259;-66
2022/05/04 08:11:47;;;;;;;3.33;3.23;;;16.60;99.90;;;;;;5051459;28;20809;-64
2022/05/04 08:14:12;;;;;;;3.90;3.70;;;16.40;99.90;;;;;;5051046;28;20261;-63
2022/05/04 08:16:39;;;;;;;3.13;3.03;;;16.20;99.90;;;;;;5033159;28;20195;-64
2022/05/04 08:19:06;;;;;;;3.37;3.27;;;16.30;99.90;;;;;;5051013;28;20179;-65
2022/05/04 08:21:32;;;;;;;2.80;2.70;;;16.60;99.90;;;;;;5051249;28;20190;-64
2022/05/04 08:23:58;;;;;;;3.00;2.90;;;16.90;99.90;;;;;;5050834;28;20178;-65
2022/05/04 08:26:24;;;;;;;3.70;3.43;;;16.90;99.90;;;;;;5050995;28;20173;-64
2022/05/04 08:28:51;;;;;;;4.17;3.97;;;16.80;99.90;;;;;;5050809;28;20274;-65
2022/05/04 08:31:21;;;;;;;3.10;3.00;;;17.10;99.90;;;;;;5051326;28;20170;-65
2022/05/04 08:33:48;;;;;;;2.90;2.80;;;17.30;99.90;;;;;;5050734;28;20206;-63
2022/05/04 08:36:14;;;;;;;2.70;2.60;;;17.60;99.90;;;;;;5050698;28;20194;-62
2022/05/04 08:38:40;;;;;;;2.73;2.63;;;18.00;99.90;;;;;;5050970;28;20267;-65
2022/05/04 08:41:06;;;;;;;2.43;2.33;;;18.40;99.90;;;;;;5050887;28;20185;-64
2022/05/04 08:43:33;;;;;;;3.00;2.90;;;18.70;99.90;;;;;;5050653;28;20183;-65
2022/05/04 08:46:00;;;;;;;2.70;2.60;;;19.10;99.90;;;;;;5050586;28;20633;-64
2022/05/04 08:48:27;;;;;;;2.90;2.80;;;19.00;99.90;;;;;;5046647;28;20657;-64
2022/05/04 08:50:54;;;;;;;3.50;3.40;;;19.00;99.90;;;;;;5050915;28;20269;-66
2022/05/04 08:53:20;;;;;;;3.40;3.30;;;18.70;99.90;;;;;;5049856;28;20179;-65
2022/05/04 08:55:47;;;;;;;3.37;3.23;;;18.30;99.90;;;;;;5048958;28;20182;-64
2022/05/04 08:58:13;;;;;;;3.20;3.10;;;17.70;99.90;;;;;;5050945;28;20233;-64
2022/05/04 09:00:39;;;;;;;3.80;3.60;;;17.50;99.90;;;;;;5050822;28;20206;-66
2022/05/04 09:03:07;;;;;;;2.83;2.73;;;17.10;99.90;;;;;;5050854;28;20175;-65
2022/05/04 09:05:39;;;;;;;3.73;3.57;;;17.20;99.90;;;;;;5049886;28;20270;-64
2022/05/04 09:08:05;;;;;;;3.57;3.27;;;17.40;99.90;;;;;;5050762;28;20714;-65
2022/05/04 09:10:36;;;;;;;3.30;3.10;;;17.50;99.90;;;;;;5033192;28;20175;-65
2022/05/04 09:13:03;;;;;;;2.70;2.60;;;17.40;99.90;;;;;;5050686;28;20171;-66
2022/05/04 09:15:34;;;;;;;3.17;3.07;;;17.30;99.90;;;;;;5050481;28;20257;-66
2022/05/04 09:18:07;;;;;;;3.10;3.00;;;17.10;99.90;;;;;;5050812;28;20210;-66
2022/05/04 09:20:53;;;;;;;2.83;2.73;;;17.10;99.90;;;;;;5054923;28;20542;-66
2022/05/04 09:23:25;;;;;;;2.97;2.87;;;17.40;99.90;;;;;;5054745;28;20183;-65
2022/05/04 09:26:07;;;;;;;2.80;2.70;;;17.80;99.90;;;;;;5054190;28;20599;-65
2022/05/04 09:28:34;;;;;;;2.70;2.60;;;18.40;99.90;;;;;;5054877;28;20195;-65
2022/05/04 09:31:05;;;;;;;2.60;2.50;;;18.90;99.90;;;;;;5054555;28;20258;-64
2022/05/04 09:33:34;;;;;;;2.10;2.00;;;19.20;99.90;;;;;;5054515;28;20175;-65
2022/05/04 09:36:03;;;;;;;2.60;2.50;;;19.90;99.90;;;;;;5054220;28;20617;-66
2022/05/04 09:46:48;;;;;;;2.30;2.20;;;21.20;99.90;;;;;;5054830;28;20561;-67
2022/05/04 09:49:22;;;;;;;3.00;2.83;;;21.70;99.90;;;;;;5055379;28;20210;-66
2022/05/04 09:51:52;;;;;;;2.40;2.30;;;21.50;99.90;;;;;;5055041;28;20178;-67
2022/05/04 09:54:20;;;;;;;3.03;2.83;;;21.40;99.90;;;;;;5055592;28;20228;-67
2022/05/04 09:56:51;;;;;;;2.65;2.55;;;20.40;99.90;;;;;;5055494;28;20647;-66
2022/05/04 09:59:19;;;;;;;2.92;2.80;;;20.00;99.90;;;;;;5055219;28;20583;-65
2022/05/04 10:01:46;;;;;;;4.10;3.80;;;19.90;99.90;;;;;;5054632;28;20175;-67
2022/05/04 10:04:12;;;;;;;3.30;3.10;;;19.80;99.90;;;;;;5055434;28;20239;-66
2022/05/04 10:06:38;;;;;;;2.95;2.83;;;20.40;99.90;;;;;;5054624;28;20281;-67
2022/05/04 10:09:05;;;;;;;3.50;3.30;;;20.90;99.90;;;;;;5045006;28;20218;-66
2022/05/04 10:11:33;;;;;;;2.45;2.35;;;21.30;99.90;;;;;;5052268;28;20651;-67
2022/05/04 10:14:03;;;;;;;2.20;2.10;;;21.60;99.90;;;;;;5054428;28;20183;-66
2022/05/04 10:16:33;;;;;;;2.58;2.47;;;21.90;99.90;;;;;;5054036;28;20252;-66
2022/05/04 10:19:03;;;;;;;2.38;2.28;;;22.10;99.90;;;;;;5054598;28;20595;-67
2022/05/04 10:21:30;;;;;;;2.88;2.72;;;22.40;99.90;;;;;;5054329;28;20262;-66
2022/05/04 10:24:01;;;;;;;2.83;2.72;;;22.70;99.90;;;;;;5053760;28;20188;-66
2022/05/04 10:26:35;;;;;;;2.45;2.35;;;22.00;99.90;;;;;;5052555;28;20218;-66
2022/05/04 10:31:59;;;;;;;2.30;2.20;;;21.90;99.90;;;;;;5052685;28;20539;-66
2022/05/04 10:34:24;;;;;;;2.70;2.60;;;21.70;99.90;;;;;;5054126;28;20651;-67
2022/05/04 10:36:53;;;;;;;3.20;3.10;;;21.30;99.90;;;;;;5053734;28;20233;-66
2022/05/04 10:39:23;;;;;;;2.80;2.70;;;21.10;99.90;;;;;;5054314;28;20175;-67
2022/05/04 10:41:49;;;;;;;2.33;2.22;;;21.00;99.90;;;;;;5053702;28;20186;-66
2022/05/04 10:44:15;;;;;;;2.30;2.20;;;20.90;99.90;;;;;;5053813;28;20178;-67
2022/05/04 10:46:45;;;;;;;3.17;3.05;;;21.00;99.90;;;;;;5052841;28;20206;-66
2022/05/04 10:49:14;;;;;;;2.40;2.30;;;20.90;99.90;;;;;;5053501;28;20211;-66
2022/05/04 10:51:41;;;;;;;7.72;4.97;;;20.80;99.90;;;;;;5053441;28;20544;-66
2022/05/04 10:54:13;;;;;;;3.03;2.92;;;21.20;99.90;;;;;;5053680;28;20175;-67
2022/05/04 10:56:46;;;;;;;2.75;2.65;;;21.80;99.90;;;;;;5052890;28;20218;-66
2022/05/04 10:59:13;;;;;;;2.25;2.15;;;22.20;99.90;;;;;;5052943;28;20686;-67
2022/05/04 11:01:40;;;;;;;2.40;2.30;;;22.70;99.90;;;;;;5053098;28;20185;-67
2022/05/04 11:04:14;;;;;;;2.53;2.42;;;22.80;99.90;;;;;;5052950;28;20178;-67
2022/05/04 11:06:40;;;;;;;2.72;2.63;;;23.00;99.90;;;;;;5052858;28;20193;-66
2022/05/04 11:09:14;;;;;;;3.13;2.92;;;23.00;99.90;;;;;;5047687;28;20199;-67
2022/05/04 11:11:45;;;;;;;2.47;2.38;;;23.40;99.90;;;;;;5052904;28;20236;-67
2022/05/04 11:14:12;;;;;;;2.95;2.83;;;24.20;99.90;;;;;;5052518;28;20175;-66
2022/05/04 11:16:39;;;;;;;2.17;2.08;;;24.10;99.90;;;;;;5052765;28;20641;-67
2022/05/04 11:19:06;;;;;;;2.40;2.30;;;24.00;99.90;;;;;;5052830;28;20265;-67
2022/05/04 11:21:33;;;;;;;2.33;2.22;;;24.30;99.90;;;;;;5052731;28;20192;-66
2022/05/04 11:24:01;;;;;;;4.28;3.97;;;24.50;99.90;;;;;;5050829;28;20269;-66
2022/05/04 11:26:38;;;;;;;2.65;2.42;;;24.40;99.90;;;;;;5052189;28;20294;-67
2022/05/04 11:29:14;;;;;;;3.17;3.03;;;23.60;99.90;;;;;;5052482;28;20214;-66
2022/05/04 11:32:02;;;;;;;2.42;2.33;;;23.50;99.90;;;;;;5052902;28;20625;-66
2022/05/04 11:34:36;;;;;;;3.05;2.85;;;24.00;99.90;;;;;;5052310;28;20233;-66
2022/05/04 11:37:07;;;;;;;2.33;2.22;;;24.40;99.90;;;;;;5053079;28;20210;-67
2022/05/04 11:39:33;;;;;;;3.10;2.90;;;24.20;99.90;;;;;;5052374;28;20639;-67
2022/05/04 11:42:00;;;;;;;3.08;2.97;;;24.60;99.90;;;;;;5051971;28;20639;-67
2022/05/04 11:44:27;;;;;;;2.55;2.45;;;24.60;99.90;;;;;;5051893;28;20671;-65
2022/05/04 11:46:55;;;;;;;2.90;2.70;;;24.60;99.90;;;;;;5052101;28;20201;-64
2022/05/04 11:49:23;;;;;;;2.45;2.33;;;23.70;99.90;;;;;;5051915;28;20198;-65
2022/05/04 11:51:50;;;;;;;3.30;3.00;;;22.50;99.90;;;;;;5052115;28;20183;-67
2022/05/04 11:54:16;;;;;;;3.17;2.97;;;22.60;99.90;;;;;;5051969;28;20719;-66
2022/05/04 11:56:42;;;;;;;2.35;2.25;;;22.90;99.90;;;;;;5035925;28;20680;-67
2022/05/04 11:59:08;;;;;;;2.25;2.15;;;23.10;99.90;;;;;;5041046;28;20186;-66
2022/05/04 12:01:35;;;;;;;2.30;2.20;;;23.40;99.90;;;;;;5051312;28;20182;-65
2022/05/04 12:04:02;;;;;;;3.40;3.10;;;23.50;99.90;;;;;;5050970;28;20252;-66
2022/05/04 12:06:28;;;;;;;2.17;2.08;;;23.40;99.90;;;;;;5051064;28;20197;-66
2022/05/04 12:08:54;;;;;;;3.03;2.92;;;23.00;99.90;;;;;;5052132;28;20252;-67
2022/05/04 12:11:22;;;;;;;2.88;2.78;;;23.10;99.90;;;;;;5051982;28;20167;-67
2022/05/04 12:13:50;;;;;;;2.38;2.25;;;23.50;99.90;;;;;;5051347;28;20203;-67
2022/05/04 12:16:16;;;;;;;2.70;2.60;;;23.80;99.90;;;;;;5051771;28;20163;-67
2022/05/04 12:18:42;;;;;;;2.65;2.55;;;23.60;99.90;;;;;;5033955;28;20222;-67
2022/05/04 12:21:10;;;;;;;2.65;2.55;;;23.70;99.90;;;;;;5051465;28;20167;-67
2022/05/04 12:23:39;;;;;;;2.58;2.47;;;24.10;99.90;;;;;;5051218;28;20187;-66
2022/05/04 12:26:06;;;;;;;2.50;2.38;;;24.80;99.90;;;;;;5051068;28;20178;-67
2022/05/04 12:28:33;;;;;;;2.33;2.22;;;24.80;99.90;;;;;;5050122;28;20302;-65
2022/05/04 12:33:44;;;;;;;2.65;2.55;;;24.30;99.90;;;;;;5051650;28;20232;-67
2022/05/04 12:36:11;;;;;;;2.65;2.55;;;24.00;99.90;;;;;;5051390;28;20254;-67
2022/05/04 12:38:38;;;;;;;3.30;3.20;;;24.10;99.90;;;;;;5051442;28;20610;-66
2022/05/04 12:41:06;;;;;;;2.10;2.00;;;24.40;99.90;;;;;;5051050;28;20182;-66
2022/05/04 12:43:37;;;;;;;3.00;2.83;;;24.10;99.90;;;;;;5051519;28;20205;-67
2022/05/04 12:46:07;;;;;;;2.55;2.38;;;23.70;99.90;;;;;;5050670;28;20233;-66
2022/05/04 12:48:35;;;;;;;2.42;2.33;;;23.30;99.90;;;;;;5033855;28;20631;-67
2022/05/04 12:51:03;;;;;;;2.20;2.10;;;23.40;99.90;;;;;;5051546;28;20171;-67
2022/05/04 12:53:28;;;;;;;2.88;2.78;;;23.60;99.90;;;;;;5050594;28;20158;-66
2022/05/04 12:58:39;;;;;;;2.60;2.50;;;23.50;99.90;;;;;;5051231;28;20240;-66
2022/05/04 13:01:05;;;;;;;3.38;3.03;;;23.40;99.90;;;;;;5050817;28;20210;-66
2022/05/04 13:03:34;;;;;;;2.70;2.60;;;23.10;99.90;;;;;;5051460;28;20171;-67
2022/05/04 13:06:00;;;;;;;2.50;2.40;;;23.30;99.90;;;;;;5050456;28;20209;-67
2022/05/04 13:08:26;;;;;;;1.92;1.83;;;23.80;99.90;;;;;;5051614;28;20206;-67
2022/05/04 13:10:52;;;;;;;2.22;2.13;;;24.30;99.90;;;;;;5051066;28;20189;-66
2022/05/04 13:13:19;;;;;;;2.40;2.30;;;24.60;99.90;;;;;;5051415;28;20195;-67
2022/05/04 13:15:47;;;;;;;2.55;2.45;;;24.60;99.90;;;;;;5050244;28;20179;-67
2022/05/04 13:18:13;;;;;;;2.17;2.08;;;24.60;99.90;;;;;;5051441;28;20218;-67
2022/05/04 13:20:39;;;;;;;2.25;2.15;;;24.70;99.90;;;;;;5051268;28;20272;-67
2022/05/04 13:23:07;;;;;;;3.00;2.80;;;24.40;99.90;;;;;;5051304;28;20531;-67
2022/05/04 13:25:33;;;;;;;2.10;2.00;;;24.30;99.90;;;;;;5050371;28;20186;-67
2022/05/04 13:27:59;;;;;;;2.25;2.15;;;23.90;99.50;;;;;;5050206;28;20238;-66
2022/05/04 13:30:25;;;;;;;3.88;3.58;;;23.60;98.80;;;;;;5050647;28;20210;-66